createdAt,value
2019-03-30T08:57:45.073Z,987.89
2019-03-30T08:58:44.966Z,987.81
2019-03-30T08:59:44.959Z,987.84
2019-03-30T09:00:44.959Z,987.89
2019-03-30T09:01:44.933Z,987.88
2019-03-30T09:02:44.924Z,987.82
2019-03-30T09:03:44.934Z,987.91
2019-03-30T09:04:44.905Z,987.84
2019-03-30T09:05:44.925Z,987.81
2019-03-30T09:06:44.933Z,987.81
2019-03-30T09:07:44.901Z,987.82
2019-03-30T09:08:44.891Z,987.87
2019-03-30T09:09:44.895Z,987.80
2019-03-30T09:10:44.834Z,987.85
2019-03-30T09:11:44.831Z,987.87
2019-03-30T09:12:44.916Z,987.83
2019-03-30T09:13:44.834Z,987.83
2019-03-30T09:14:44.815Z,987.77
2019-03-30T09:15:44.802Z,987.83
2019-03-30T09:16:44.777Z,987.83
2019-03-30T09:17:44.780Z,987.80
2019-03-30T09:18:44.748Z,987.79
2019-03-30T09:19:44.745Z,987.81
2019-03-30T09:20:44.749Z,987.79
2019-03-30T09:21:44.878Z,987.75
2019-03-30T09:22:44.703Z,987.76
2019-03-30T09:23:44.747Z,987.83
2019-03-30T09:24:44.713Z,987.77
2019-03-30T09:25:44.677Z,987.74
2019-03-30T09:26:44.674Z,987.72
2019-03-30T09:27:44.758Z,987.71
2019-03-30T09:28:44.649Z,987.79
2019-03-30T09:29:44.640Z,987.75
2019-03-30T09:30:44.625Z,987.71
2019-03-30T09:31:44.617Z,987.67
2019-03-30T09:32:45.205Z,987.71
2019-03-30T09:33:44.647Z,987.69
2019-03-30T09:34:44.713Z,987.72
2019-03-30T09:35:44.572Z,987.71
2019-03-30T09:36:44.729Z,987.64
2019-03-30T09:37:44.547Z,987.62
2019-03-30T09:38:44.531Z,987.63
2019-03-30T09:39:44.541Z,987.64
2019-03-30T09:40:44.521Z,987.59
2019-03-30T09:41:44.502Z,987.57
2019-03-30T09:42:44.492Z,987.59
2019-03-30T09:43:44.479Z,987.59
2019-03-30T09:44:44.529Z,987.59
2019-03-30T09:45:44.469Z,987.52
2019-03-30T09:46:44.448Z,987.55
2019-03-30T09:47:44.450Z,987.55
2019-03-30T09:48:44.454Z,987.54
2019-03-30T09:49:44.437Z,987.55
2019-03-30T09:50:44.399Z,987.49
2019-03-30T09:51:44.585Z,987.53
2019-03-30T09:52:44.377Z,987.50
2019-03-30T09:53:44.717Z,987.46
2019-03-30T09:54:44.352Z,987.42
2019-03-30T09:55:44.352Z,987.45
2019-03-30T09:56:44.344Z,987.48
2019-03-30T09:57:44.447Z,987.50
2019-03-30T09:58:44.317Z,987.52
2019-03-30T09:59:44.300Z,987.49
2019-03-30T10:00:44.295Z,987.52
2019-03-30T10:01:44.282Z,987.42
2019-03-30T10:02:44.266Z,987.40
2019-03-30T10:03:44.312Z,987.47
2019-03-30T10:04:44.246Z,987.44
2019-03-30T10:05:44.237Z,987.42
2019-03-30T10:06:44.228Z,987.34
2019-03-30T10:07:44.212Z,987.39
2019-03-30T10:08:44.201Z,987.38
2019-03-30T10:09:47.157Z,987.39
2019-03-30T10:10:44.181Z,987.33
2019-03-30T10:11:44.167Z,987.35
2019-03-30T10:12:44.157Z,987.34
2019-03-30T10:13:44.148Z,987.32
2019-03-30T10:14:44.138Z,987.34
2019-03-30T10:15:44.145Z,987.29
2019-03-30T10:16:44.135Z,987.32
2019-03-30T10:17:44.104Z,987.26
2019-03-30T10:18:44.100Z,987.25
2019-03-30T10:19:44.087Z,987.21
2019-03-30T10:20:44.075Z,987.22
2019-03-30T10:21:44.076Z,987.22
2019-03-30T10:22:44.089Z,987.22
2019-03-30T10:23:44.042Z,987.27
2019-03-30T10:24:44.037Z,987.26
2019-03-30T10:25:44.167Z,987.20
2019-03-30T10:26:44.012Z,987.21
2019-03-30T10:27:44.017Z,987.19
2019-03-30T10:28:46.946Z,987.18
2019-03-30T10:29:44.017Z,987.10
2019-03-30T10:30:44.000Z,987.12
2019-03-30T10:31:43.962Z,987.10
2019-03-30T10:32:43.950Z,987.06
2019-03-30T10:33:43.998Z,987.02
2019-03-30T10:34:43.932Z,987.08
2019-03-30T10:35:43.923Z,986.97
2019-03-30T10:36:43.945Z,986.93
2019-03-30T10:37:43.899Z,986.96
2019-03-30T10:38:43.880Z,986.99
2019-03-30T10:39:43.889Z,986.93
2019-03-30T10:40:43.862Z,986.88
2019-03-30T10:41:43.850Z,986.95
2019-03-30T10:42:43.841Z,986.87
2019-03-30T10:43:43.890Z,986.96
2019-03-30T10:44:43.845Z,986.87
2019-03-30T10:45:43.838Z,986.84
2019-03-30T10:46:43.796Z,986.91
2019-03-30T10:47:43.886Z,986.93
2019-03-30T10:48:43.783Z,986.90
2019-03-30T10:49:43.765Z,986.87
2019-03-30T10:50:43.763Z,986.91
2019-03-30T10:51:43.846Z,986.83
2019-03-30T10:52:43.739Z,986.85
2019-03-30T10:53:43.731Z,986.75
2019-03-30T10:54:52.665Z,986.73
2019-03-30T10:55:44.814Z,986.72
2019-03-30T10:56:43.692Z,986.73
2019-03-30T10:57:43.705Z,986.75
2019-03-30T10:58:43.668Z,986.77
2019-03-30T10:59:43.658Z,986.77
2019-03-30T11:00:43.642Z,986.71
2019-03-30T11:01:43.637Z,986.72
2019-03-30T11:02:43.622Z,986.69
2019-03-30T11:03:43.638Z,986.67
2019-03-30T11:04:43.603Z,986.68
2019-03-30T11:05:43.626Z,986.70
2019-03-30T11:06:43.664Z,986.65
2019-03-30T11:07:43.601Z,986.65
2019-03-30T11:08:43.597Z,986.62
2019-03-30T11:09:43.610Z,986.59
2019-03-30T11:10:43.544Z,986.59
2019-03-30T11:11:43.532Z,986.61
2019-03-30T11:12:43.532Z,986.53
2019-03-30T11:13:43.613Z,986.54
2019-03-30T11:14:43.499Z,986.49
2019-03-30T11:15:43.499Z,986.47
2019-03-30T11:16:43.489Z,986.43
2019-03-30T11:17:43.466Z,986.41
2019-03-30T11:18:43.463Z,986.37
2019-03-30T11:19:43.574Z,986.38
2019-03-30T11:20:43.441Z,986.34
2019-03-30T11:21:43.479Z,986.34
2019-03-30T11:22:43.412Z,986.37
2019-03-30T11:23:43.409Z,986.28
2019-03-30T11:24:43.396Z,986.35
2019-03-30T11:25:43.501Z,986.31
2019-03-30T11:26:43.364Z,986.28
2019-03-30T11:27:43.383Z,986.23
2019-03-30T11:28:43.350Z,986.25
2019-03-30T11:29:43.416Z,986.25
2019-03-30T11:30:43.325Z,986.21
2019-03-30T11:31:43.337Z,986.23
2019-03-30T11:32:43.303Z,986.17
2019-03-30T11:33:43.305Z,986.14
2019-03-30T11:34:43.278Z,986.19
2019-03-30T11:35:43.286Z,986.16
2019-03-30T11:36:43.283Z,986.16
2019-03-30T11:37:43.286Z,986.12
2019-03-30T11:38:43.245Z,986.09
2019-03-30T11:39:43.252Z,986.13
2019-03-30T11:40:43.227Z,986.04
2019-03-30T11:41:43.203Z,986.01
2019-03-30T11:42:43.196Z,986.00
2019-03-30T11:43:43.272Z,985.94
2019-03-30T11:44:43.172Z,985.97
2019-03-30T11:45:43.173Z,985.94
2019-03-30T11:46:43.155Z,986.01
2019-03-30T11:47:43.143Z,985.97
2019-03-30T11:48:43.123Z,985.97
2019-03-30T11:49:43.148Z,985.92
2019-03-30T11:50:43.149Z,985.90
2019-03-30T11:51:43.142Z,985.95
2019-03-30T11:52:43.085Z,985.88
2019-03-30T11:53:43.083Z,985.80
2019-03-30T11:54:43.066Z,985.85
2019-03-30T11:55:43.052Z,985.85
2019-03-30T11:56:43.075Z,985.79
2019-03-30T11:57:43.051Z,985.74
2019-03-30T11:58:43.020Z,985.72
2019-03-30T11:59:43.018Z,985.73
2019-03-30T12:00:43.057Z,985.73
2019-03-30T12:01:43.009Z,985.66
2019-03-30T12:02:42.986Z,985.68
2019-03-30T12:03:42.990Z,985.68
2019-03-30T12:04:42.960Z,985.68
2019-03-30T12:05:42.946Z,985.66
2019-03-30T12:06:42.933Z,985.62
2019-03-30T12:07:42.942Z,985.63
2019-03-30T12:08:42.915Z,985.63
2019-03-30T12:09:42.952Z,985.60
2019-03-30T12:10:42.908Z,985.64
2019-03-30T12:11:42.897Z,985.66
2019-03-30T12:12:42.890Z,985.59
2019-03-30T12:13:42.913Z,985.57
2019-03-30T12:14:42.865Z,985.60
2019-03-30T12:15:42.990Z,985.55
2019-03-30T12:16:42.827Z,985.54
2019-03-30T12:17:42.859Z,985.51
2019-03-30T12:18:42.814Z,985.49
2019-03-30T12:19:42.808Z,985.48
2019-03-30T12:20:42.789Z,985.49
2019-03-30T12:21:42.792Z,985.48
2019-03-30T12:22:42.759Z,985.37
2019-03-30T12:23:42.961Z,985.39
2019-03-30T12:24:42.751Z,985.39
2019-03-30T12:25:42.725Z,985.37
2019-03-30T12:26:42.718Z,985.40
2019-03-30T12:27:42.747Z,985.29
2019-03-30T12:28:42.719Z,985.25
2019-03-30T12:29:44.543Z,985.24
2019-03-30T12:30:42.687Z,985.20
2019-03-30T12:31:42.664Z,985.21
2019-03-30T12:32:42.715Z,985.21
2019-03-30T12:33:42.670Z,985.13
2019-03-30T12:34:42.653Z,985.13
2019-03-30T12:35:42.652Z,985.07
2019-03-30T12:36:42.613Z,985.08
2019-03-30T12:37:42.613Z,985.04
2019-03-30T12:38:42.604Z,985.01
2019-03-30T12:39:42.600Z,985.06
2019-03-30T12:40:42.577Z,985.07
2019-03-30T12:41:42.572Z,985.07
2019-03-30T12:42:42.551Z,985.00
2019-03-30T12:43:42.559Z,984.99
2019-03-30T12:44:42.530Z,984.98
2019-03-30T12:45:42.534Z,985.02
2019-03-30T12:46:42.506Z,984.91
2019-03-30T12:47:42.510Z,984.96
2019-03-30T12:48:42.508Z,984.89
2019-03-30T12:49:45.100Z,984.89
2019-03-30T12:50:42.470Z,984.81
2019-03-30T12:51:42.497Z,984.81
2019-03-30T12:52:42.442Z,984.79
2019-03-30T12:53:49.990Z,984.83
2019-03-30T12:54:43.425Z,984.76
2019-03-30T12:55:49.178Z,984.78
2019-03-30T12:56:43.424Z,984.74
2019-03-30T12:57:42.386Z,984.73
2019-03-30T12:58:42.383Z,984.78
2019-03-30T12:59:42.380Z,984.73
2019-03-30T13:00:42.377Z,984.66
2019-03-30T13:01:42.347Z,984.70
2019-03-30T13:02:42.380Z,984.70
2019-03-30T13:03:42.340Z,984.71
2019-03-30T13:04:42.317Z,984.66
2019-03-30T13:05:42.307Z,984.61
2019-03-30T13:06:42.310Z,984.67
2019-03-30T13:07:42.288Z,984.61
2019-03-30T13:08:42.295Z,984.59
2019-03-30T13:09:42.269Z,984.62
2019-03-30T13:10:45.317Z,984.54
2019-03-30T13:11:42.238Z,984.54
2019-03-30T13:12:42.233Z,984.56
2019-03-30T13:13:42.224Z,984.51
2019-03-30T13:14:42.221Z,984.46
2019-03-30T13:15:42.196Z,984.40
2019-03-30T13:16:42.201Z,984.34
2019-03-30T13:17:42.183Z,984.35
2019-03-30T13:18:42.181Z,984.30
2019-03-30T13:19:42.157Z,984.36
2019-03-30T13:20:42.157Z,984.31
2019-03-30T13:21:52.422Z,984.32
2019-03-30T13:22:43.130Z,984.34
2019-03-30T13:23:42.115Z,984.34
2019-03-30T13:24:42.102Z,984.29
2019-03-30T13:25:42.101Z,984.22
2019-03-30T13:26:42.111Z,984.26
2019-03-30T13:27:42.088Z,984.27
2019-03-30T13:28:42.058Z,984.22
2019-03-30T13:29:42.049Z,984.21
2019-03-30T13:30:42.032Z,984.18
2019-03-30T13:31:42.052Z,984.24
2019-03-30T13:32:42.045Z,984.17
2019-03-30T13:33:42.001Z,984.24
2019-03-30T13:34:41.991Z,984.21
2019-03-30T13:35:41.987Z,984.19
2019-03-30T13:36:42.056Z,984.17
2019-03-30T13:37:41.966Z,984.13
2019-03-30T13:38:41.984Z,984.04
2019-03-30T13:39:41.937Z,984.08
2019-03-30T13:40:41.931Z,984.05
2019-03-30T13:41:41.921Z,984.01
2019-03-30T13:42:41.902Z,984.01
2019-03-30T13:43:41.891Z,984.02
2019-03-30T13:44:42.058Z,983.97
2019-03-30T13:45:41.874Z,984.03
2019-03-30T13:46:41.867Z,984.04
2019-03-30T13:47:41.851Z,984.00
2019-03-30T13:48:41.841Z,984.05
2019-03-30T13:49:41.833Z,983.99
2019-03-30T13:50:41.831Z,983.95
2019-03-30T13:51:41.810Z,984.06
2019-03-30T13:52:41.793Z,983.94
2019-03-30T13:53:41.787Z,983.91
2019-03-30T13:54:41.786Z,983.86
2019-03-30T13:55:41.763Z,983.81
2019-03-30T13:56:41.765Z,983.84
2019-03-30T13:57:41.744Z,983.86
2019-03-30T13:58:41.730Z,983.84
2019-03-30T13:59:41.726Z,983.89
2019-03-30T14:00:41.786Z,983.85
2019-03-30T14:01:41.720Z,983.80
2019-03-30T14:02:44.089Z,983.88
2019-03-30T14:03:41.682Z,983.90
2019-03-30T14:04:41.669Z,983.81
2019-03-30T14:05:41.707Z,983.79
2019-03-30T14:06:41.659Z,983.71
2019-03-30T14:07:41.631Z,983.72
2019-03-30T14:08:41.640Z,983.76
2019-03-30T14:09:41.622Z,983.73
2019-03-30T14:10:41.616Z,983.69
2019-03-30T14:11:41.589Z,983.68
2019-03-30T14:12:41.615Z,983.62
2019-03-30T14:13:41.575Z,983.70
2019-03-30T14:14:41.605Z,983.63
2019-03-30T14:15:41.557Z,983.60
2019-03-30T14:16:41.534Z,983.65
2019-03-30T14:17:41.551Z,983.59
2019-03-30T14:18:41.539Z,983.55
2019-03-30T14:19:41.512Z,983.54
2019-03-30T14:20:41.510Z,983.59
2019-03-30T14:21:41.478Z,983.59
2019-03-30T14:22:41.470Z,983.48
2019-03-30T14:23:43.447Z,983.53
2019-03-30T14:24:41.452Z,983.50
2019-03-30T14:25:41.450Z,983.41
2019-03-30T14:26:41.446Z,983.46
2019-03-30T14:27:41.438Z,983.51
2019-03-30T14:28:41.427Z,983.47
2019-03-30T14:29:41.439Z,983.49
2019-03-30T14:30:41.391Z,983.44
2019-03-30T14:31:41.374Z,983.51
2019-03-30T14:32:41.372Z,983.41
2019-03-30T14:33:41.395Z,983.33
2019-03-30T14:34:41.377Z,983.39
2019-03-30T14:35:43.784Z,983.34
2019-03-30T14:36:41.423Z,983.36
2019-03-30T14:37:41.365Z,983.34
2019-03-30T14:38:41.371Z,983.36
2019-03-30T14:39:41.285Z,983.36
2019-03-30T14:40:41.278Z,983.30
2019-03-30T14:41:41.269Z,983.30
2019-03-30T14:42:41.246Z,983.33
2019-03-30T14:43:41.241Z,983.31
2019-03-30T14:44:41.239Z,983.29
2019-03-30T14:45:41.229Z,983.30
2019-03-30T14:46:41.207Z,983.34
2019-03-30T14:47:41.199Z,983.25
2019-03-30T14:48:41.290Z,983.26
2019-03-30T14:49:41.174Z,983.35
2019-03-30T14:50:41.183Z,983.30
2019-03-30T14:51:41.164Z,983.28
2019-03-30T14:52:41.284Z,983.25
2019-03-30T14:53:41.133Z,983.15
2019-03-30T14:54:52.031Z,983.18
2019-03-30T14:55:42.155Z,983.17
2019-03-30T14:56:45.761Z,983.11
2019-03-30T14:57:42.088Z,983.18
2019-03-30T14:58:41.159Z,983.13
2019-03-30T14:59:41.077Z,983.14
2019-03-30T15:00:41.199Z,983.13
2019-03-30T15:01:41.068Z,983.09
2019-03-30T15:02:41.051Z,983.07
2019-03-30T15:03:41.059Z,983.06
2019-03-30T15:04:41.030Z,983.09
2019-03-30T15:05:41.023Z,983.08
2019-03-30T15:06:41.014Z,983.10
2019-03-30T15:07:40.991Z,983.05
2019-03-30T15:08:40.974Z,983.07
2019-03-30T15:09:40.985Z,983.03
2019-03-30T15:10:40.998Z,983.05
2019-03-30T15:11:40.975Z,982.98
2019-03-30T15:12:40.939Z,983.04
2019-03-30T15:13:40.946Z,983.01
2019-03-30T15:14:40.913Z,983.00
2019-03-30T15:15:40.888Z,983.03
2019-03-30T15:16:40.876Z,983.01
2019-03-30T15:17:41.401Z,983.00
2019-03-30T15:18:40.857Z,982.94
2019-03-30T15:19:40.863Z,982.95
2019-03-30T15:20:40.844Z,982.96
2019-03-30T15:21:40.828Z,982.97
2019-03-30T15:22:40.830Z,982.93
2019-03-30T15:23:40.814Z,982.99
2019-03-30T15:24:40.794Z,982.90
2019-03-30T15:25:40.808Z,982.85
2019-03-30T15:26:40.773Z,982.87
2019-03-30T15:27:40.753Z,982.87
2019-03-30T15:28:42.789Z,982.84
2019-03-30T15:29:40.759Z,982.83
2019-03-30T15:30:40.730Z,982.80
2019-03-30T15:31:40.750Z,982.84
2019-03-30T15:32:40.708Z,982.81
2019-03-30T15:33:40.711Z,982.81
2019-03-30T15:34:40.689Z,982.79
2019-03-30T15:35:40.677Z,982.78
2019-03-30T15:36:41.228Z,982.80
2019-03-30T15:37:40.670Z,982.80
2019-03-30T15:38:40.634Z,982.71
2019-03-30T15:39:40.636Z,982.74
2019-03-30T15:40:40.612Z,982.72
2019-03-30T15:41:40.606Z,982.74
2019-03-30T15:42:40.816Z,982.70
2019-03-30T15:43:40.591Z,982.74
2019-03-30T15:44:40.683Z,982.69
2019-03-30T15:45:40.685Z,982.78
2019-03-30T15:46:40.546Z,982.68
2019-03-30T15:47:40.532Z,982.69
2019-03-30T15:48:40.523Z,982.73
2019-03-30T15:49:40.544Z,982.67
2019-03-30T15:50:40.501Z,982.67
2019-03-30T15:51:40.567Z,982.68
2019-03-30T15:52:40.484Z,982.67
2019-03-30T15:53:40.471Z,982.71
2019-03-30T15:54:40.490Z,982.69
2019-03-30T15:55:40.477Z,982.61
2019-03-30T15:56:40.435Z,982.61
2019-03-30T15:57:40.423Z,982.60
2019-03-30T15:58:40.414Z,982.58
2019-03-30T15:59:40.416Z,982.59
2019-03-30T16:00:40.404Z,982.58
2019-03-30T16:01:40.435Z,982.61
2019-03-30T16:02:40.378Z,982.59
2019-03-30T16:03:40.371Z,982.49
2019-03-30T16:04:40.365Z,982.55
2019-03-30T16:05:40.337Z,982.51
2019-03-30T16:06:40.342Z,982.53
2019-03-30T16:07:40.340Z,982.45
2019-03-30T16:08:40.374Z,982.51
2019-03-30T16:09:40.310Z,982.50
2019-03-30T16:10:40.282Z,982.47
2019-03-30T16:11:40.279Z,982.50
2019-03-30T16:12:40.263Z,982.51
2019-03-30T16:13:40.384Z,982.48
2019-03-30T16:14:40.240Z,982.56
2019-03-30T16:15:40.415Z,982.61
2019-03-30T16:16:40.858Z,982.51
2019-03-30T16:17:43.349Z,982.49
2019-03-30T16:18:41.495Z,982.50
2019-03-30T16:19:42.103Z,982.49
2019-03-30T16:20:41.607Z,982.47
2019-03-30T16:21:41.220Z,982.46
2019-03-30T16:22:40.770Z,982.49
2019-03-30T16:23:40.717Z,982.52
2019-03-30T16:24:41.157Z,982.42
2019-03-30T16:25:43.877Z,982.47
2019-03-30T16:26:42.477Z,982.52
2019-03-30T16:27:41.255Z,982.51
2019-03-30T16:28:41.103Z,982.47
2019-03-30T16:29:40.697Z,982.44
2019-03-30T16:30:41.687Z,982.45
2019-03-30T16:31:40.084Z,982.47
2019-03-30T16:32:40.046Z,982.51
2019-03-30T16:33:40.037Z,982.47
2019-03-30T16:34:40.037Z,982.51
2019-03-30T16:35:40.400Z,982.50
2019-03-30T16:36:40.001Z,982.46
2019-03-30T16:37:40.012Z,982.42
2019-03-30T16:38:39.980Z,982.42
2019-03-30T16:39:39.992Z,982.48
2019-03-30T16:40:39.957Z,982.48
2019-03-30T16:41:39.947Z,982.48
2019-03-30T16:42:39.982Z,982.42
2019-03-30T16:43:40.014Z,982.45
2019-03-30T16:44:40.435Z,982.47
2019-03-30T16:45:39.918Z,982.44
2019-03-30T16:46:39.910Z,982.45
2019-03-30T16:47:39.884Z,982.42
2019-03-30T16:48:39.883Z,982.48
2019-03-30T16:49:39.888Z,982.48
2019-03-30T16:50:39.852Z,982.50
2019-03-30T16:51:39.835Z,982.42
2019-03-30T16:52:41.154Z,982.47
2019-03-30T16:53:39.820Z,982.41
2019-03-30T16:54:39.807Z,982.41
2019-03-30T16:55:39.828Z,982.41
2019-03-30T16:56:39.782Z,982.42
2019-03-30T16:57:43.408Z,982.41
2019-03-30T16:58:39.768Z,982.36
2019-03-30T16:59:39.763Z,982.40
2019-03-30T17:00:55.401Z,982.43
2019-03-30T17:01:40.758Z,982.40
2019-03-30T17:02:39.720Z,982.37
2019-03-30T17:03:39.798Z,982.41
2019-03-30T17:04:39.701Z,982.37
2019-03-30T17:05:39.685Z,982.38
2019-03-30T17:06:39.685Z,982.42
2019-03-30T17:07:39.685Z,982.40
2019-03-30T17:08:39.650Z,982.33
2019-03-30T17:09:39.643Z,982.35
2019-03-30T17:10:40.382Z,982.34
2019-03-30T17:11:39.623Z,982.29
2019-03-30T17:12:39.610Z,982.33
2019-03-30T17:13:39.608Z,982.31
2019-03-30T17:14:39.585Z,982.34
2019-03-30T17:15:39.577Z,982.32
2019-03-30T17:16:39.582Z,982.31
2019-03-30T17:17:39.551Z,982.38
2019-03-30T17:18:39.541Z,982.35
2019-03-30T17:19:39.546Z,982.30
2019-03-30T17:20:39.516Z,982.31
2019-03-30T17:21:39.563Z,982.30
2019-03-30T17:22:39.524Z,982.34
2019-03-30T17:23:39.484Z,982.28
2019-03-30T17:24:39.474Z,982.23
2019-03-30T17:25:39.477Z,982.32
2019-03-30T17:26:39.462Z,982.28
2019-03-30T17:27:39.439Z,982.28
2019-03-30T17:28:39.469Z,982.26
2019-03-30T17:29:39.420Z,982.24
2019-03-30T17:30:39.410Z,982.28
2019-03-30T17:31:39.423Z,982.29
2019-03-30T17:32:39.417Z,982.19
2019-03-30T17:33:39.398Z,982.23
2019-03-30T17:34:39.368Z,982.30
2019-03-30T17:35:39.354Z,982.23
2019-03-30T17:36:39.364Z,982.25
2019-03-30T17:37:39.355Z,982.30
2019-03-30T17:38:39.319Z,982.27
2019-03-30T17:39:39.308Z,982.29
2019-03-30T17:40:39.327Z,982.22
2019-03-30T17:41:39.286Z,982.29
2019-03-30T17:42:39.385Z,982.28
2019-03-30T17:43:39.277Z,982.31
2019-03-30T17:44:39.257Z,982.27
2019-03-30T17:45:39.244Z,982.27
2019-03-30T17:46:39.232Z,982.33
2019-03-30T17:47:39.222Z,982.29
2019-03-30T17:48:39.255Z,982.24
2019-03-30T17:49:39.231Z,982.30
2019-03-30T17:50:39.187Z,982.25
2019-03-30T17:51:39.179Z,982.36
2019-03-30T17:52:46.212Z,982.28
2019-03-30T17:53:39.575Z,982.27
2019-03-30T17:54:39.919Z,982.33
2019-03-30T17:55:39.153Z,982.27
2019-03-30T17:56:39.124Z,982.34
2019-03-30T17:57:39.114Z,982.36
2019-03-30T17:58:39.105Z,982.30
2019-03-30T17:59:39.094Z,982.33
2019-03-30T18:00:39.084Z,982.29
2019-03-30T18:01:39.085Z,982.30
2019-03-30T18:02:39.063Z,982.35
2019-03-30T18:03:39.052Z,982.39
2019-03-30T18:04:39.212Z,982.38
2019-03-30T18:05:39.032Z,982.43
2019-03-30T18:06:39.015Z,982.44
2019-03-30T18:07:39.019Z,982.41
2019-03-30T18:08:38.992Z,982.43
2019-03-30T18:09:38.978Z,982.40
2019-03-30T18:10:38.972Z,982.45
2019-03-30T18:11:38.962Z,982.48
2019-03-30T18:12:38.947Z,982.44
2019-03-30T18:13:38.950Z,982.49
2019-03-30T18:14:38.924Z,982.48
2019-03-30T18:15:38.915Z,982.44
2019-03-30T18:16:38.902Z,982.42
2019-03-30T18:17:38.892Z,982.44
2019-03-30T18:18:38.896Z,982.50
2019-03-30T18:19:38.887Z,982.52
2019-03-30T18:20:38.973Z,982.51
2019-03-30T18:21:38.845Z,982.47
2019-03-30T18:22:38.863Z,982.55
2019-03-30T18:23:38.832Z,982.60
2019-03-30T18:24:38.820Z,982.57
2019-03-30T18:25:38.823Z,982.52
2019-03-30T18:26:38.797Z,982.55
2019-03-30T18:27:38.790Z,982.58
2019-03-30T18:28:38.774Z,982.62
2019-03-30T18:29:38.769Z,982.65
2019-03-30T18:30:38.757Z,982.58
2019-03-30T18:31:38.761Z,982.62
2019-03-30T18:32:38.732Z,982.60
2019-03-30T18:33:38.719Z,982.64
2019-03-30T18:34:38.708Z,982.69
2019-03-30T18:35:38.695Z,982.67
2019-03-30T18:36:38.698Z,982.68
2019-03-30T18:37:38.703Z,982.70
2019-03-30T18:38:38.664Z,982.67
2019-03-30T18:39:38.654Z,982.66
2019-03-30T18:40:38.652Z,982.72
2019-03-30T18:41:38.636Z,982.66
2019-03-30T18:42:38.622Z,982.76
2019-03-30T18:43:38.622Z,982.78
2019-03-30T18:44:38.601Z,982.79
2019-03-30T18:45:38.595Z,982.83
2019-03-30T18:46:38.576Z,982.80
2019-03-30T18:47:38.566Z,982.79
2019-03-30T18:48:38.553Z,982.81
2019-03-30T18:49:38.563Z,982.85
2019-03-30T18:50:38.538Z,982.75
2019-03-30T18:51:38.521Z,982.87
2019-03-30T18:52:38.512Z,982.83
2019-03-30T18:53:38.499Z,982.86
2019-03-30T18:54:38.560Z,982.94
2019-03-30T18:55:38.511Z,982.84
2019-03-30T18:56:38.463Z,982.93
2019-03-30T18:57:38.454Z,982.91
2019-03-30T18:58:41.815Z,982.89
2019-03-30T18:59:38.434Z,982.91
2019-03-30T19:00:38.428Z,982.92
2019-03-30T19:01:38.428Z,982.93
2019-03-30T19:02:38.404Z,982.95
2019-03-30T19:03:38.387Z,982.89
2019-03-30T19:04:38.378Z,982.94
2019-03-30T19:05:38.366Z,982.94
2019-03-30T19:06:38.353Z,982.94
2019-03-30T19:07:38.363Z,982.94
2019-03-30T19:08:38.331Z,982.98
2019-03-30T19:09:38.319Z,982.96
2019-03-30T19:10:38.313Z,982.99
2019-03-30T19:11:38.302Z,982.91
2019-03-30T19:12:38.288Z,982.96
2019-03-30T19:13:38.316Z,983.01
2019-03-30T19:14:38.300Z,982.96
2019-03-30T19:15:38.274Z,983.02
2019-03-30T19:16:38.254Z,982.97
2019-03-30T19:17:38.229Z,982.94
2019-03-30T19:18:38.226Z,982.98
2019-03-30T19:19:38.226Z,982.99
2019-03-30T19:20:38.194Z,982.97
2019-03-30T19:21:38.188Z,982.96
2019-03-30T19:22:38.175Z,983.01
2019-03-30T19:23:38.159Z,982.99
2019-03-30T19:24:38.152Z,983.02
2019-03-30T19:25:38.203Z,983.00
2019-03-30T19:26:38.135Z,982.97
2019-03-30T19:27:38.120Z,982.97
2019-03-30T19:28:38.111Z,982.91
2019-03-30T19:29:38.097Z,983.02
2019-03-30T19:30:38.088Z,983.02
2019-03-30T19:31:38.090Z,983.01
2019-03-30T19:32:38.070Z,983.01
2019-03-30T19:33:38.055Z,983.00
2019-03-30T19:34:38.051Z,982.98
2019-03-30T19:35:38.044Z,983.03
2019-03-30T19:36:38.024Z,982.96
2019-03-30T19:37:38.040Z,982.98
2019-03-30T19:38:38.001Z,982.99
2019-03-30T19:39:37.988Z,983.03
2019-03-30T19:40:37.978Z,983.02
2019-03-30T19:41:37.969Z,982.99
2019-03-30T19:42:37.960Z,983.00
2019-03-30T19:43:37.963Z,982.99
2019-03-30T19:44:37.937Z,983.01
2019-03-30T19:45:37.924Z,982.99
2019-03-30T19:46:37.919Z,982.99
2019-03-30T19:47:37.908Z,982.99
2019-03-30T19:48:37.893Z,983.11
2019-03-30T19:49:37.896Z,982.98
2019-03-30T19:50:37.870Z,982.99
2019-03-30T19:51:37.860Z,983.04
2019-03-30T19:52:40.245Z,983.00
2019-03-30T19:53:37.838Z,982.97
2019-03-30T19:54:37.831Z,983.00
2019-03-30T19:55:37.834Z,983.00
2019-03-30T19:56:37.812Z,982.98
2019-03-30T19:57:37.797Z,983.03
2019-03-30T19:58:37.783Z,982.97
2019-03-30T19:59:37.779Z,982.98
2019-03-30T20:00:38.921Z,983.00
2019-03-30T20:01:37.834Z,982.96
2019-03-30T20:02:37.747Z,983.01
2019-03-30T20:03:37.730Z,983.00
2019-03-30T20:04:37.721Z,982.95
2019-03-30T20:05:37.730Z,982.97
2019-03-30T20:06:37.699Z,982.96
2019-03-30T20:07:37.715Z,983.04
2019-03-30T20:08:37.685Z,982.94
2019-03-30T20:09:37.666Z,982.99
2019-03-30T20:10:37.660Z,983.02
2019-03-30T20:11:37.644Z,983.02
2019-03-30T20:12:37.634Z,983.07
2019-03-30T20:13:37.647Z,983.01
2019-03-30T20:14:37.605Z,983.06
2019-03-30T20:15:37.622Z,983.02
2019-03-30T20:16:37.587Z,983.09
2019-03-30T20:17:37.577Z,983.07
2019-03-30T20:18:37.577Z,983.06
2019-03-30T20:19:37.711Z,983.11
2019-03-30T20:20:37.552Z,983.11
2019-03-30T20:21:37.537Z,983.12
2019-03-30T20:22:37.529Z,983.08
2019-03-30T20:23:37.511Z,983.07
2019-03-30T20:24:37.503Z,983.07
2019-03-30T20:25:37.522Z,983.05
2019-03-30T20:26:37.479Z,983.08
2019-03-30T20:27:37.468Z,983.07
2019-03-30T20:28:37.457Z,983.10
2019-03-30T20:29:37.445Z,983.11
2019-03-30T20:30:37.440Z,983.11
2019-03-30T20:31:37.440Z,983.09
2019-03-30T20:32:37.417Z,983.14
2019-03-30T20:33:37.407Z,983.13
2019-03-30T20:34:37.392Z,983.14
2019-03-30T20:35:37.385Z,983.10
2019-03-30T20:36:37.380Z,983.15
2019-03-30T20:37:37.398Z,983.10
2019-03-30T20:38:37.370Z,983.18
2019-03-30T20:39:38.099Z,983.14
2019-03-30T20:40:37.334Z,983.16
2019-03-30T20:41:37.353Z,983.12
2019-03-30T20:42:37.302Z,983.13
2019-03-30T20:43:37.305Z,983.19
2019-03-30T20:44:37.276Z,983.24
2019-03-30T20:45:37.267Z,983.21
2019-03-30T20:46:37.260Z,983.21
2019-03-30T20:47:37.254Z,983.19
2019-03-30T20:48:37.238Z,983.16
2019-03-30T20:49:37.244Z,983.19
2019-03-30T20:50:37.215Z,983.15
2019-03-30T20:51:37.207Z,983.17
2019-03-30T20:52:37.194Z,983.16
2019-03-30T20:53:37.188Z,983.24
2019-03-30T20:54:37.174Z,983.20
2019-03-30T20:55:37.225Z,983.14
2019-03-30T20:56:37.165Z,983.14
2019-03-30T20:57:37.142Z,983.13
2019-03-30T20:58:37.130Z,983.12
2019-03-30T20:59:40.251Z,983.14
2019-03-30T21:00:37.107Z,983.09
2019-03-30T21:01:38.483Z,983.05
2019-03-30T21:02:37.087Z,983.11
2019-03-30T21:03:37.074Z,983.08
2019-03-30T21:04:37.066Z,983.13
2019-03-30T21:05:37.052Z,983.01
2019-03-30T21:06:37.043Z,983.06
2019-03-30T21:07:37.057Z,983.07
2019-03-30T21:08:37.020Z,983.05
2019-03-30T21:09:37.011Z,983.13
2019-03-30T21:10:37.008Z,983.09
2019-03-30T21:11:37.021Z,983.13
2019-03-30T21:12:37.028Z,983.06
2019-03-30T21:13:37.001Z,983.16
2019-03-30T21:14:36.958Z,983.15
2019-03-30T21:15:36.945Z,983.12
2019-03-30T21:16:36.955Z,983.18
2019-03-30T21:17:36.936Z,983.17
2019-03-30T21:18:36.910Z,983.17
2019-03-30T21:19:36.918Z,983.20
2019-03-30T21:20:36.890Z,983.16
2019-03-30T21:21:36.881Z,983.11
2019-03-30T21:22:36.868Z,983.21
2019-03-30T21:23:36.859Z,983.13
2019-03-30T21:24:36.852Z,983.10
2019-03-30T21:25:36.865Z,983.08